sensor_id;sensor_type;location;lat;lon;timestamp;P1;durP1;ratioP1;P2;durP2;ratioP2
85102;SDS011;75452;44.106;3.074;2024-02-14T00:00:32;2.60;;;2.40;;
85102;SDS011;75452;44.106;3.074;2024-02-14T00:02:57;2.53;;;2.33;;
85102;SDS011;75452;44.106;3.074;2024-02-14T00:05:22;2.38;;;2.28;;
85102;SDS011;75452;44.106;3.074;2024-02-14T00:07:48;2.10;;;2.00;;
85102;SDS011;75452;44.106;3.074;2024-02-14T00:10:13;2.88;;;2.67;;
85102;SDS011;75452;44.106;3.074;2024-02-14T00:12:38;2.20;;;2.00;;
85102;SDS011;75452;44.106;3.074;2024-02-14T00:15:07;2.60;;;2.40;;
85102;SDS011;75452;44.106;3.074;2024-02-14T00:17:33;1.88;;;1.77;;
85102;SDS011;75452;44.106;3.074;2024-02-14T00:19:59;1.85;;;1.75;;
85102;SDS011;75452;44.106;3.074;2024-02-14T00:22:28;1.73;;;1.63;;
85102;SDS011;75452;44.106;3.074;2024-02-14T00:24:54;2.75;;;2.55;;
85102;SDS011;75452;44.106;3.074;2024-02-14T00:27:19;1.80;;;1.70;;
85102;SDS011;75452;44.106;3.074;2024-02-14T00:29:45;1.80;;;1.70;;
85102;SDS011;75452;44.106;3.074;2024-02-14T00:32:14;2.33;;;2.13;;
85102;SDS011;75452;44.106;3.074;2024-02-14T00:34:40;2.00;;;1.90;;
85102;SDS011;75452;44.106;3.074;2024-02-14T00:37:05;2.05;;;1.95;;
85102;SDS011;75452;44.106;3.074;2024-02-14T00:39:31;2.05;;;1.95;;
85102;SDS011;75452;44.106;3.074;2024-02-14T00:41:56;2.58;;;2.38;;
85102;SDS011;75452;44.106;3.074;2024-02-14T00:44:22;2.47;;;2.28;;
85102;SDS011;75452;44.106;3.074;2024-02-14T00:46:47;2.58;;;2.38;;
85102;SDS011;75452;44.106;3.074;2024-02-14T00:49:16;2.80;;;2.60;;
85102;SDS011;75452;44.106;3.074;2024-02-14T00:51:41;2.55;;;2.35;;
85102;SDS011;75452;44.106;3.074;2024-02-14T00:54:07;2.63;;;2.05;;
85102;SDS011;75452;44.106;3.074;2024-02-14T00:56:33;1.92;;;1.83;;
85102;SDS011;75452;44.106;3.074;2024-02-14T00:58:58;1.88;;;1.77;;
85102;SDS011;75452;44.106;3.074;2024-02-14T01:01:24;1.90;;;1.80;;
85102;SDS011;75452;44.106;3.074;2024-02-14T01:03:50;1.83;;;1.73;;
85102;SDS011;75452;44.106;3.074;2024-02-14T01:06:16;1.77;;;1.67;;
85102;SDS011;75452;44.106;3.074;2024-02-14T01:08:41;1.92;;;1.83;;
85102;SDS011;75452;44.106;3.074;2024-02-14T01:11:07;1.88;;;1.77;;
85102;SDS011;75452;44.106;3.074;2024-02-14T01:13:33;1.63;;;1.52;;
85102;SDS011;75452;44.106;3.074;2024-02-14T01:15:58;1.55;;;1.45;;
85102;SDS011;75452;44.106;3.074;2024-02-14T01:18:24;1.38;;;1.27;;
85102;SDS011;75452;44.106;3.074;2024-02-14T01:20:49;1.60;;;1.50;;
85102;SDS011;75452;44.106;3.074;2024-02-14T01:23:15;1.70;;;1.60;;
85102;SDS011;75452;44.106;3.074;2024-02-14T01:25:41;1.10;;;1.10;;
85102;SDS011;75452;44.106;3.074;2024-02-14T01:28:07;1.80;;;1.70;;
85102;SDS011;75452;44.106;3.074;2024-02-14T01:30:33;1.55;;;1.45;;
85102;SDS011;75452;44.106;3.074;2024-02-14T01:33:01;1.13;;;1.10;;
85102;SDS011;75452;44.106;3.074;2024-02-14T01:35:28;1.60;;;1.50;;
85102;SDS011;75452;44.106;3.074;2024-02-14T01:37:54;1.48;;;1.38;;
85102;SDS011;75452;44.106;3.074;2024-02-14T01:40:19;1.60;;;1.50;;
85102;SDS011;75452;44.106;3.074;2024-02-14T01:42:45;2.15;;;2.05;;
85102;SDS011;75452;44.106;3.074;2024-02-14T01:45:10;1.88;;;1.77;;
85102;SDS011;75452;44.106;3.074;2024-02-14T01:47:37;2.00;;;1.90;;
85102;SDS011;75452;44.106;3.074;2024-02-14T01:50:04;1.70;;;1.60;;
85102;SDS011;75452;44.106;3.074;2024-02-14T01:52:33;1.45;;;1.35;;
85102;SDS011;75452;44.106;3.074;2024-02-14T01:55:00;1.50;;;1.40;;
85102;SDS011;75452;44.106;3.074;2024-02-14T01:57:27;1.50;;;1.40;;
85102;SDS011;75452;44.106;3.074;2024-02-14T01:59:53;1.42;;;1.33;;
85102;SDS011;75452;44.106;3.074;2024-02-14T02:02:19;1.30;;;1.30;;
85102;SDS011;75452;44.106;3.074;2024-02-14T02:04:45;1.60;;;1.50;;
85102;SDS011;75452;44.106;3.074;2024-02-14T02:07:11;1.30;;;1.20;;
85102;SDS011;75452;44.106;3.074;2024-02-14T02:09:37;1.33;;;1.30;;
85102;SDS011;75452;44.106;3.074;2024-02-14T02:12:02;1.33;;;1.23;;
85102;SDS011;75452;44.106;3.074;2024-02-14T02:14:32;1.60;;;1.50;;
85102;SDS011;75452;44.106;3.074;2024-02-14T02:16:58;1.40;;;1.30;;
85102;SDS011;75452;44.106;3.074;2024-02-14T02:19:24;1.60;;;1.50;;
85102;SDS011;75452;44.106;3.074;2024-02-14T02:21:49;1.30;;;1.27;;
85102;SDS011;75452;44.106;3.074;2024-02-14T02:24:15;0.98;;;0.93;;
85102;SDS011;75452;44.106;3.074;2024-02-14T02:26:40;1.52;;;1.42;;
85102;SDS011;75452;44.106;3.074;2024-02-14T02:29:05;1.08;;;1.08;;
85102;SDS011;75452;44.106;3.074;2024-02-14T02:31:31;1.40;;;1.30;;
85102;SDS011;75452;44.106;3.074;2024-02-14T02:33:56;1.40;;;1.30;;
85102;SDS011;75452;44.106;3.074;2024-02-14T02:36:22;1.35;;;1.27;;
85102;SDS011;75452;44.106;3.074;2024-02-14T02:38:49;1.23;;;1.00;;
85102;SDS011;75452;44.106;3.074;2024-02-14T02:41:15;0.88;;;0.88;;
85102;SDS011;75452;44.106;3.074;2024-02-14T02:43:40;1.30;;;1.20;;
85102;SDS011;75452;44.106;3.074;2024-02-14T02:46:06;0.98;;;0.98;;
85102;SDS011;75452;44.106;3.074;2024-02-14T02:48:34;1.50;;;1.40;;
85102;SDS011;75452;44.106;3.074;2024-02-14T02:50:59;1.40;;;1.30;;
85102;SDS011;75452;44.106;3.074;2024-02-14T02:53:25;1.30;;;1.20;;
85102;SDS011;75452;44.106;3.074;2024-02-14T02:55:50;1.25;;;1.15;;
85102;SDS011;75452;44.106;3.074;2024-02-14T02:58:16;1.10;;;1.00;;
85102;SDS011;75452;44.106;3.074;2024-02-14T03:00:42;0.98;;;0.98;;
85102;SDS011;75452;44.106;3.074;2024-02-14T03:03:08;1.20;;;1.10;;
85102;SDS011;75452;44.106;3.074;2024-02-14T03:05:33;1.00;;;0.90;;
85102;SDS011;75452;44.106;3.074;2024-02-14T03:07:59;1.42;;;1.33;;
85102;SDS011;75452;44.106;3.074;2024-02-14T03:10:26;1.00;;;0.98;;
85102;SDS011;75452;44.106;3.074;2024-02-14T03:12:52;0.90;;;0.90;;
85102;SDS011;75452;44.106;3.074;2024-02-14T03:15:18;1.05;;;1.05;;
85102;SDS011;75452;44.106;3.074;2024-02-14T03:17:44;0.90;;;0.90;;
85102;SDS011;75452;44.106;3.074;2024-02-14T03:20:10;1.15;;;1.05;;
85102;SDS011;75452;44.106;3.074;2024-02-14T03:22:39;0.85;;;0.85;;
85102;SDS011;75452;44.106;3.074;2024-02-14T03:25:12;1.20;;;1.20;;
85102;SDS011;75452;44.106;3.074;2024-02-14T03:27:39;1.00;;;1.00;;
85102;SDS011;75452;44.106;3.074;2024-02-14T03:30:05;1.10;;;1.00;;
85102;SDS011;75452;44.106;3.074;2024-02-14T03:32:31;1.27;;;1.20;;
85102;SDS011;75452;44.106;3.074;2024-02-14T03:34:57;1.20;;;1.20;;
85102;SDS011;75452;44.106;3.074;2024-02-14T03:37:23;0.80;;;0.73;;
85102;SDS011;75452;44.106;3.074;2024-02-14T03:39:49;1.08;;;0.98;;
85102;SDS011;75452;44.106;3.074;2024-02-14T03:42:14;1.20;;;1.15;;
85102;SDS011;75452;44.106;3.074;2024-02-14T03:44:41;0.70;;;0.70;;
85102;SDS011;75452;44.106;3.074;2024-02-14T03:47:07;0.98;;;0.98;;
85102;SDS011;75452;44.106;3.074;2024-02-14T03:49:32;1.10;;;1.10;;
85102;SDS011;75452;44.106;3.074;2024-02-14T03:51:57;0.90;;;0.90;;
85102;SDS011;75452;44.106;3.074;2024-02-14T03:54:24;0.80;;;0.80;;
85102;SDS011;75452;44.106;3.074;2024-02-14T03:56:49;1.08;;;1.08;;
85102;SDS011;75452;44.106;3.074;2024-02-14T03:59:16;1.10;;;1.00;;
85102;SDS011;75452;44.106;3.074;2024-02-14T04:01:46;0.98;;;0.90;;
85102;SDS011;75452;44.106;3.074;2024-02-14T04:04:11;1.05;;;1.05;;
85102;SDS011;75452;44.106;3.074;2024-02-14T04:06:36;0.80;;;0.80;;
85102;SDS011;75452;44.106;3.074;2024-02-14T04:09:02;0.98;;;0.98;;
85102;SDS011;75452;44.106;3.074;2024-02-14T04:11:27;0.98;;;0.93;;
85102;SDS011;75452;44.106;3.074;2024-02-14T04:13:53;0.82;;;0.80;;
85102;SDS011;75452;44.106;3.074;2024-02-14T04:16:19;0.80;;;0.80;;
85102;SDS011;75452;44.106;3.074;2024-02-14T04:18:45;0.88;;;0.85;;
85102;SDS011;75452;44.106;3.074;2024-02-14T04:21:10;0.80;;;0.80;;
85102;SDS011;75452;44.106;3.074;2024-02-14T04:23:36;0.80;;;0.80;;
85102;SDS011;75452;44.106;3.074;2024-02-14T04:26:01;0.80;;;0.80;;
85102;SDS011;75452;44.106;3.074;2024-02-14T04:28:26;0.60;;;0.60;;
85102;SDS011;75452;44.106;3.074;2024-02-14T04:30:52;1.00;;;1.00;;
85102;SDS011;75452;44.106;3.074;2024-02-14T04:33:18;0.77;;;0.77;;
85102;SDS011;75452;44.106;3.074;2024-02-14T04:35:44;1.00;;;1.00;;
85102;SDS011;75452;44.106;3.074;2024-02-14T04:38:09;0.82;;;0.82;;
85102;SDS011;75452;44.106;3.074;2024-02-14T04:40:34;1.15;;;1.00;;
85102;SDS011;75452;44.106;3.074;2024-02-14T04:43:00;0.75;;;0.75;;
85102;SDS011;75452;44.106;3.074;2024-02-14T04:45:25;1.65;;;0.80;;
85102;SDS011;75452;44.106;3.074;2024-02-14T04:47:51;1.10;;;1.08;;
85102;SDS011;75452;44.106;3.074;2024-02-14T04:50:17;0.77;;;0.77;;
85102;SDS011;75452;44.106;3.074;2024-02-14T04:52:43;1.00;;;1.00;;
85102;SDS011;75452;44.106;3.074;2024-02-14T04:55:09;1.20;;;1.10;;
85102;SDS011;75452;44.106;3.074;2024-02-14T04:57:35;0.75;;;0.60;;
85102;SDS011;75452;44.106;3.074;2024-02-14T05:00:02;0.65;;;0.65;;
85102;SDS011;75452;44.106;3.074;2024-02-14T05:02:29;0.82;;;0.82;;
85102;SDS011;75452;44.106;3.074;2024-02-14T05:04:55;0.95;;;0.95;;
85102;SDS011;75452;44.106;3.074;2024-02-14T05:07:20;0.80;;;0.80;;
85102;SDS011;75452;44.106;3.074;2024-02-14T05:09:45;0.85;;;0.85;;
85102;SDS011;75452;44.106;3.074;2024-02-14T05:12:13;0.88;;;0.88;;
85102;SDS011;75452;44.106;3.074;2024-02-14T05:14:38;0.90;;;0.90;;
85102;SDS011;75452;44.106;3.074;2024-02-14T05:17:05;0.60;;;0.60;;
85102;SDS011;75452;44.106;3.074;2024-02-14T05:19:31;0.93;;;0.70;;
85102;SDS011;75452;44.106;3.074;2024-02-14T05:21:57;0.90;;;0.90;;
85102;SDS011;75452;44.106;3.074;2024-02-14T05:24:22;0.95;;;0.95;;
85102;SDS011;75452;44.106;3.074;2024-02-14T05:26:48;1.20;;;1.13;;
85102;SDS011;75452;44.106;3.074;2024-02-14T05:29:14;0.85;;;0.85;;
85102;SDS011;75452;44.106;3.074;2024-02-14T05:31:43;1.15;;;0.95;;
85102;SDS011;75452;44.106;3.074;2024-02-14T05:34:09;0.63;;;0.63;;
85102;SDS011;75452;44.106;3.074;2024-02-14T05:36:35;0.88;;;0.88;;
85102;SDS011;75452;44.106;3.074;2024-02-14T05:39:01;0.75;;;0.75;;
85102;SDS011;75452;44.106;3.074;2024-02-14T05:41:27;0.75;;;0.75;;
85102;SDS011;75452;44.106;3.074;2024-02-14T05:43:53;0.80;;;0.80;;
85102;SDS011;75452;44.106;3.074;2024-02-14T05:46:18;0.80;;;0.73;;
85102;SDS011;75452;44.106;3.074;2024-02-14T05:48:46;0.90;;;0.90;;
85102;SDS011;75452;44.106;3.074;2024-02-14T05:51:11;0.80;;;0.80;;
85102;SDS011;75452;44.106;3.074;2024-02-14T05:53:37;2.67;;;1.10;;
85102;SDS011;75452;44.106;3.074;2024-02-14T05:56:02;0.77;;;0.77;;
85102;SDS011;75452;44.106;3.074;2024-02-14T05:58:28;1.00;;;1.00;;
85102;SDS011;75452;44.106;3.074;2024-02-14T06:00:53;1.00;;;1.00;;
85102;SDS011;75452;44.106;3.074;2024-02-14T06:03:20;0.80;;;0.80;;
85102;SDS011;75452;44.106;3.074;2024-02-14T06:05:46;0.80;;;0.80;;
85102;SDS011;75452;44.106;3.074;2024-02-14T06:08:11;1.23;;;1.13;;
85102;SDS011;75452;44.106;3.074;2024-02-14T06:10:37;1.00;;;1.00;;
85102;SDS011;75452;44.106;3.074;2024-02-14T06:13:04;0.70;;;0.70;;
85102;SDS011;75452;44.106;3.074;2024-02-14T06:15:29;0.73;;;0.73;;
85102;SDS011;75452;44.106;3.074;2024-02-14T06:17:55;1.30;;;1.10;;
85102;SDS011;75452;44.106;3.074;2024-02-14T06:20:20;0.93;;;0.93;;
85102;SDS011;75452;44.106;3.074;2024-02-14T06:22:46;0.82;;;0.82;;
85102;SDS011;75452;44.106;3.074;2024-02-14T06:25:11;1.00;;;1.00;;
85102;SDS011;75452;44.106;3.074;2024-02-14T06:27:36;0.98;;;0.82;;
85102;SDS011;75452;44.106;3.074;2024-02-14T06:30:02;0.90;;;0.90;;
85102;SDS011;75452;44.106;3.074;2024-02-14T06:32:28;1.67;;;0.93;;
85102;SDS011;75452;44.106;3.074;2024-02-14T06:34:54;1.13;;;1.13;;
85102;SDS011;75452;44.106;3.074;2024-02-14T06:37:19;1.02;;;1.02;;
85102;SDS011;75452;44.106;3.074;2024-02-14T06:39:45;0.70;;;0.68;;
85102;SDS011;75452;44.106;3.074;2024-02-14T06:42:10;1.02;;;1.00;;
85102;SDS011;75452;44.106;3.074;2024-02-14T06:44:36;1.25;;;1.25;;
85102;SDS011;75452;44.106;3.074;2024-02-14T06:47:01;1.48;;;1.38;;
85102;SDS011;75452;44.106;3.074;2024-02-14T06:49:27;1.52;;;1.42;;
85102;SDS011;75452;44.106;3.074;2024-02-14T06:51:52;2.00;;;1.77;;
85102;SDS011;75452;44.106;3.074;2024-02-14T06:54:17;1.95;;;1.85;;
85102;SDS011;75452;44.106;3.074;2024-02-14T06:56:44;1.75;;;1.65;;
85102;SDS011;75452;44.106;3.074;2024-02-14T06:59:10;1.92;;;1.83;;
85102;SDS011;75452;44.106;3.074;2024-02-14T07:01:35;1.30;;;1.15;;
85102;SDS011;75452;44.106;3.074;2024-02-14T07:04:00;1.48;;;1.38;;
85102;SDS011;75452;44.106;3.074;2024-02-14T07:06:26;1.50;;;1.40;;
85102;SDS011;75452;44.106;3.074;2024-02-14T07:08:52;1.60;;;1.50;;
85102;SDS011;75452;44.106;3.074;2024-02-14T07:11:18;1.60;;;1.50;;
85102;SDS011;75452;44.106;3.074;2024-02-14T07:13:43;1.98;;;1.88;;
85102;SDS011;75452;44.106;3.074;2024-02-14T07:16:09;1.20;;;1.20;;
85102;SDS011;75452;44.106;3.074;2024-02-14T07:18:34;1.10;;;1.10;;
85102;SDS011;75452;44.106;3.074;2024-02-14T07:21:00;1.92;;;1.83;;
85102;SDS011;75452;44.106;3.074;2024-02-14T07:23:26;2.25;;;2.13;;
85102;SDS011;75452;44.106;3.074;2024-02-14T07:25:52;4.85;;;2.30;;
85102;SDS011;75452;44.106;3.074;2024-02-14T07:28:18;1.98;;;1.77;;
85102;SDS011;75452;44.106;3.074;2024-02-14T07:30:43;4.50;;;2.00;;
85102;SDS011;75452;44.106;3.074;2024-02-14T07:33:09;2.22;;;2.03;;
85102;SDS011;75452;44.106;3.074;2024-02-14T07:35:36;4.05;;;1.88;;
85102;SDS011;75452;44.106;3.074;2024-02-14T07:38:01;2.60;;;2.40;;
85102;SDS011;75452;44.106;3.074;2024-02-14T07:40:27;2.08;;;1.98;;
85102;SDS011;75452;44.106;3.074;2024-02-14T07:42:55;2.35;;;2.15;;
85102;SDS011;75452;44.106;3.074;2024-02-14T07:45:21;2.15;;;2.05;;
85102;SDS011;75452;44.106;3.074;2024-02-14T07:47:48;1.90;;;1.80;;
85102;SDS011;75452;44.106;3.074;2024-02-14T07:50:14;1.83;;;1.73;;
85102;SDS011;75452;44.106;3.074;2024-02-14T07:52:43;2.08;;;1.80;;
85102;SDS011;75452;44.106;3.074;2024-02-14T07:55:09;1.50;;;1.40;;
85102;SDS011;75452;44.106;3.074;2024-02-14T07:57:37;1.67;;;1.58;;
85102;SDS011;75452;44.106;3.074;2024-02-14T08:00:04;1.60;;;1.50;;
85102;SDS011;75452;44.106;3.074;2024-02-14T08:02:30;1.77;;;1.67;;
85102;SDS011;75452;44.106;3.074;2024-02-14T08:04:56;1.48;;;1.33;;
85102;SDS011;75452;44.106;3.074;2024-02-14T08:07:21;1.50;;;1.40;;
85102;SDS011;75452;44.106;3.074;2024-02-14T08:09:46;1.50;;;1.40;;
85102;SDS011;75452;44.106;3.074;2024-02-14T08:12:12;1.33;;;1.23;;
85102;SDS011;75452;44.106;3.074;2024-02-14T08:14:38;1.40;;;1.30;;
85102;SDS011;75452;44.106;3.074;2024-02-14T08:17:03;1.30;;;1.20;;
85102;SDS011;75452;44.106;3.074;2024-02-14T08:19:29;2.42;;;1.90;;
85102;SDS011;75452;44.106;3.074;2024-02-14T08:21:54;1.40;;;1.30;;
85102;SDS011;75452;44.106;3.074;2024-02-14T08:24:24;2.58;;;1.60;;
85102;SDS011;75452;44.106;3.074;2024-02-14T08:26:50;2.78;;;1.40;;
85102;SDS011;75452;44.106;3.074;2024-02-14T08:29:16;3.30;;;1.70;;
85102;SDS011;75452;44.106;3.074;2024-02-14T08:31:41;1.63;;;1.52;;
85102;SDS011;75452;44.106;3.074;2024-02-14T08:34:06;1.90;;;1.80;;
85102;SDS011;75452;44.106;3.074;2024-02-14T08:36:32;1.85;;;1.75;;
85102;SDS011;75452;44.106;3.074;2024-02-14T08:39:00;2.00;;;1.90;;
85102;SDS011;75452;44.106;3.074;2024-02-14T08:41:25;3.10;;;1.70;;
85102;SDS011;75452;44.106;3.074;2024-02-14T08:43:50;1.60;;;1.50;;
85102;SDS011;75452;44.106;3.074;2024-02-14T08:46:17;1.67;;;1.58;;
85102;SDS011;75452;44.106;3.074;2024-02-14T08:48:42;1.75;;;1.65;;
85102;SDS011;75452;44.106;3.074;2024-02-14T08:51:11;1.70;;;1.60;;
85102;SDS011;75452;44.106;3.074;2024-02-14T08:53:38;1.50;;;1.40;;
85102;SDS011;75452;44.106;3.074;2024-02-14T08:56:03;1.50;;;1.40;;
85102;SDS011;75452;44.106;3.074;2024-02-14T08:58:29;2.47;;;1.50;;
85102;SDS011;75452;44.106;3.074;2024-02-14T09:00:55;2.22;;;1.75;;
85102;SDS011;75452;44.106;3.074;2024-02-14T09:03:20;1.38;;;1.27;;
85102;SDS011;75452;44.106;3.074;2024-02-14T09:05:45;1.63;;;1.52;;
85102;SDS011;75452;44.106;3.074;2024-02-14T09:08:11;1.65;;;1.40;;
85102;SDS011;75452;44.106;3.074;2024-02-14T09:10:37;1.50;;;1.40;;
85102;SDS011;75452;44.106;3.074;2024-02-14T09:13:03;1.70;;;1.60;;
85102;SDS011;75452;44.106;3.074;2024-02-14T09:15:29;1.15;;;1.10;;
85102;SDS011;75452;44.106;3.074;2024-02-14T09:17:56;1.42;;;1.33;;
85102;SDS011;75452;44.106;3.074;2024-02-14T09:20:22;1.45;;;1.35;;
85102;SDS011;75452;44.106;3.074;2024-02-14T09:22:47;1.48;;;1.30;;
85102;SDS011;75452;44.106;3.074;2024-02-14T09:25:13;1.23;;;0.98;;
85102;SDS011;75452;44.106;3.074;2024-02-14T09:27:39;1.38;;;1.13;;
85102;SDS011;75452;44.106;3.074;2024-02-14T09:30:06;1.20;;;1.10;;
85102;SDS011;75452;44.106;3.074;2024-02-14T09:32:32;1.40;;;1.30;;
85102;SDS011;75452;44.106;3.074;2024-02-14T09:34:58;1.33;;;1.25;;
85102;SDS011;75452;44.106;3.074;2024-02-14T09:37:24;1.38;;;1.27;;
85102;SDS011;75452;44.106;3.074;2024-02-14T09:39:50;1.17;;;1.13;;
85102;SDS011;75452;44.106;3.074;2024-02-14T09:42:16;1.48;;;1.38;;
85102;SDS011;75452;44.106;3.074;2024-02-14T09:44:42;1.42;;;1.20;;
85102;SDS011;75452;44.106;3.074;2024-02-14T09:47:09;1.30;;;1.20;;
85102;SDS011;75452;44.106;3.074;2024-02-14T09:49:34;1.95;;;1.17;;
85102;SDS011;75452;44.106;3.074;2024-02-14T09:52:01;1.92;;;1.27;;
85102;SDS011;75452;44.106;3.074;2024-02-14T09:54:28;1.48;;;1.27;;
85102;SDS011;75452;44.106;3.074;2024-02-14T09:56:55;1.10;;;1.08;;
85102;SDS011;75452;44.106;3.074;2024-02-14T09:59:22;1.13;;;1.13;;
85102;SDS011;75452;44.106;3.074;2024-02-14T10:01:49;1.00;;;1.00;;
85102;SDS011;75452;44.106;3.074;2024-02-14T10:04:16;2.28;;;0.77;;
85102;SDS011;75452;44.106;3.074;2024-02-14T10:06:43;1.00;;;1.00;;
85102;SDS011;75452;44.106;3.074;2024-02-14T10:09:09;1.20;;;1.10;;
85102;SDS011;75452;44.106;3.074;2024-02-14T10:11:35;0.88;;;0.88;;
85102;SDS011;75452;44.106;3.074;2024-02-14T10:14:01;1.05;;;1.05;;
85102;SDS011;75452;44.106;3.074;2024-02-14T10:16:28;0.95;;;0.90;;
85102;SDS011;75452;44.106;3.074;2024-02-14T10:18:54;1.17;;;1.08;;
85102;SDS011;75452;44.106;3.074;2024-02-14T10:21:21;1.30;;;1.20;;
85102;SDS011;75452;44.106;3.074;2024-02-14T10:23:47;1.38;;;1.27;;
85102;SDS011;75452;44.106;3.074;2024-02-14T10:26:15;1.48;;;1.00;;
85102;SDS011;75452;44.106;3.074;2024-02-14T10:28:44;1.25;;;1.08;;
85102;SDS011;75452;44.106;3.074;2024-02-14T10:31:10;0.95;;;0.80;;
85102;SDS011;75452;44.106;3.074;2024-02-14T10:33:35;0.73;;;0.73;;
85102;SDS011;75452;44.106;3.074;2024-02-14T10:36:01;2.17;;;1.00;;
85102;SDS011;75452;44.106;3.074;2024-02-14T10:38:28;1.02;;;1.02;;
85102;SDS011;75452;44.106;3.074;2024-02-14T10:40:56;2.28;;;1.10;;
85102;SDS011;75452;44.106;3.074;2024-02-14T10:43:24;0.90;;;0.90;;
85102;SDS011;75452;44.106;3.074;2024-02-14T10:45:49;0.80;;;0.75;;
85102;SDS011;75452;44.106;3.074;2024-02-14T10:48:16;1.23;;;1.13;;
85102;SDS011;75452;44.106;3.074;2024-02-14T10:50:43;0.70;;;0.70;;
85102;SDS011;75452;44.106;3.074;2024-02-14T10:53:13;1.05;;;0.82;;
85102;SDS011;75452;44.106;3.074;2024-02-14T10:55:41;1.27;;;1.17;;
85102;SDS011;75452;44.106;3.074;2024-02-14T10:58:10;1.13;;;1.10;;
85102;SDS011;75452;44.106;3.074;2024-02-14T11:00:38;0.98;;;0.93;;
85102;SDS011;75452;44.106;3.074;2024-02-14T11:03:04;1.00;;;0.90;;
85102;SDS011;75452;44.106;3.074;2024-02-14T11:05:30;1.00;;;1.00;;
85102;SDS011;75452;44.106;3.074;2024-02-14T11:07:56;0.80;;;0.70;;
85102;SDS011;75452;44.106;3.074;2024-02-14T11:10:22;1.17;;;1.08;;
85102;SDS011;75452;44.106;3.074;2024-02-14T11:12:48;0.70;;;0.70;;
85102;SDS011;75452;44.106;3.074;2024-02-14T11:17:42;0.93;;;0.90;;
85102;SDS011;75452;44.106;3.074;2024-02-14T11:20:12;0.70;;;0.70;;
85102;SDS011;75452;44.106;3.074;2024-02-14T11:22:39;0.88;;;0.88;;
85102;SDS011;75452;44.106;3.074;2024-02-14T11:25:08;0.60;;;0.60;;
85102;SDS011;75452;44.106;3.074;2024-02-14T11:27:44;0.90;;;0.90;;
85102;SDS011;75452;44.106;3.074;2024-02-14T11:30:10;0.88;;;0.88;;
85102;SDS011;75452;44.106;3.074;2024-02-14T11:32:37;0.73;;;0.73;;
85102;SDS011;75452;44.106;3.074;2024-02-14T11:35:07;1.10;;;0.90;;
85102;SDS011;75452;44.106;3.074;2024-02-14T11:37:36;0.68;;;0.68;;
85102;SDS011;75452;44.106;3.074;2024-02-14T11:40:01;1.08;;;0.98;;
85102;SDS011;75452;44.106;3.074;2024-02-14T11:42:27;1.02;;;1.00;;
85102;SDS011;75452;44.106;3.074;2024-02-14T11:44:52;0.90;;;0.90;;
85102;SDS011;75452;44.106;3.074;2024-02-14T11:47:20;1.65;;;1.23;;
85102;SDS011;75452;44.106;3.074;2024-02-14T11:49:46;1.00;;;1.00;;
85102;SDS011;75452;44.106;3.074;2024-02-14T11:52:12;0.88;;;0.88;;
85102;SDS011;75452;44.106;3.074;2024-02-14T11:54:39;0.85;;;0.80;;
85102;SDS011;75452;44.106;3.074;2024-02-14T11:57:04;0.95;;;0.90;;
85102;SDS011;75452;44.106;3.074;2024-02-14T11:59:29;0.90;;;0.80;;
85102;SDS011;75452;44.106;3.074;2024-02-14T12:01:55;0.80;;;0.80;;
85102;SDS011;75452;44.106;3.074;2024-02-14T12:04:23;0.85;;;0.85;;
85102;SDS011;75452;44.106;3.074;2024-02-14T12:06:48;0.93;;;0.93;;
85102;SDS011;75452;44.106;3.074;2024-02-14T12:09:14;1.50;;;1.00;;
85102;SDS011;75452;44.106;3.074;2024-02-14T12:11:40;0.88;;;0.88;;
85102;SDS011;75452;44.106;3.074;2024-02-14T12:14:09;0.90;;;0.90;;
85102;SDS011;75452;44.106;3.074;2024-02-14T12:16:37;0.77;;;0.77;;
85102;SDS011;75452;44.106;3.074;2024-02-14T12:19:23;0.93;;;0.90;;
85102;SDS011;75452;44.106;3.074;2024-02-14T12:21:48;2.85;;;1.83;;
85102;SDS011;75452;44.106;3.074;2024-02-14T12:24:14;0.90;;;0.90;;
85102;SDS011;75452;44.106;3.074;2024-02-14T12:26:40;0.80;;;0.80;;
85102;SDS011;75452;44.106;3.074;2024-02-14T12:29:06;0.95;;;0.95;;
85102;SDS011;75452;44.106;3.074;2024-02-14T12:31:33;9.73;;;1.50;;
85102;SDS011;75452;44.106;3.074;2024-02-14T12:33:59;2.53;;;1.40;;
85102;SDS011;75452;44.106;3.074;2024-02-14T12:36:29;1.77;;;1.40;;
85102;SDS011;75452;44.106;3.074;2024-02-14T12:38:58;1.73;;;1.25;;
85102;SDS011;75452;44.106;3.074;2024-02-14T12:41:27;1.42;;;1.25;;
85102;SDS011;75452;44.106;3.074;2024-02-14T12:43:54;1.10;;;1.10;;
85102;SDS011;75452;44.106;3.074;2024-02-14T12:46:20;1.48;;;0.90;;
85102;SDS011;75452;44.106;3.074;2024-02-14T12:48:46;2.40;;;1.05;;
85102;SDS011;75452;44.106;3.074;2024-02-14T12:51:12;1.17;;;1.08;;
85102;SDS011;75452;44.106;3.074;2024-02-14T12:53:38;2.53;;;1.35;;
85102;SDS011;75452;44.106;3.074;2024-02-14T12:56:04;1.27;;;1.17;;
85102;SDS011;75452;44.106;3.074;2024-02-14T12:58:29;1.20;;;1.15;;
85102;SDS011;75452;44.106;3.074;2024-02-14T13:00:56;1.27;;;1.17;;
85102;SDS011;75452;44.106;3.074;2024-02-14T13:03:21;1.42;;;1.33;;
85102;SDS011;75452;44.106;3.074;2024-02-14T13:05:47;2.50;;;1.10;;
85102;SDS011;75452;44.106;3.074;2024-02-14T13:08:13;3.88;;;0.90;;
85102;SDS011;75452;44.106;3.074;2024-02-14T13:10:38;0.93;;;0.93;;
85102;SDS011;75452;44.106;3.074;2024-02-14T13:13:03;1.10;;;1.00;;
85102;SDS011;75452;44.106;3.074;2024-02-14T13:15:29;1.30;;;1.20;;
85102;SDS011;75452;44.106;3.074;2024-02-14T13:17:55;0.80;;;0.80;;
85102;SDS011;75452;44.106;3.074;2024-02-14T13:20:23;0.93;;;0.90;;
85102;SDS011;75452;44.106;3.074;2024-02-14T13:22:48;1.30;;;1.27;;
85102;SDS011;75452;44.106;3.074;2024-02-14T13:25:14;1.25;;;1.15;;
85102;SDS011;75452;44.106;3.074;2024-02-14T13:27:40;1.27;;;1.20;;
85102;SDS011;75452;44.106;3.074;2024-02-14T13:30:05;1.13;;;1.02;;
85102;SDS011;75452;44.106;3.074;2024-02-14T13:32:32;1.08;;;0.98;;
85102;SDS011;75452;44.106;3.074;2024-02-14T13:34:57;1.70;;;1.00;;
85102;SDS011;75452;44.106;3.074;2024-02-14T13:37:23;1.13;;;1.00;;
85102;SDS011;75452;44.106;3.074;2024-02-14T13:39:49;3.88;;;1.67;;
85102;SDS011;75452;44.106;3.074;2024-02-14T13:42:15;1.40;;;1.30;;
85102;SDS011;75452;44.106;3.074;2024-02-14T13:44:40;1.75;;;1.58;;
85102;SDS011;75452;44.106;3.074;2024-02-14T13:47:06;1.70;;;1.60;;
85102;SDS011;75452;44.106;3.074;2024-02-14T13:49:31;1.48;;;1.38;;
85102;SDS011;75452;44.106;3.074;2024-02-14T13:51:57;1.70;;;1.60;;
85102;SDS011;75452;44.106;3.074;2024-02-14T13:54:23;1.27;;;1.17;;
85102;SDS011;75452;44.106;3.074;2024-02-14T13:56:49;1.02;;;1.02;;
85102;SDS011;75452;44.106;3.074;2024-02-14T13:59:14;1.67;;;1.58;;
85102;SDS011;75452;44.106;3.074;2024-02-14T14:01:40;2.08;;;1.30;;
85102;SDS011;75452;44.106;3.074;2024-02-14T14:04:06;1.55;;;1.45;;
85102;SDS011;75452;44.106;3.074;2024-02-14T14:06:31;1.25;;;1.17;;
85102;SDS011;75452;44.106;3.074;2024-02-14T14:08:57;1.42;;;1.33;;
85102;SDS011;75452;44.106;3.074;2024-02-14T14:11:22;1.40;;;1.30;;
85102;SDS011;75452;44.106;3.074;2024-02-14T14:13:48;1.40;;;1.30;;
85102;SDS011;75452;44.106;3.074;2024-02-14T14:16:14;1.92;;;1.40;;
85102;SDS011;75452;44.106;3.074;2024-02-14T14:18:39;1.30;;;1.08;;
85102;SDS011;75452;44.106;3.074;2024-02-14T14:21:05;1.20;;;1.00;;
85102;SDS011;75452;44.106;3.074;2024-02-14T14:23:30;1.50;;;1.40;;
85102;SDS011;75452;44.106;3.074;2024-02-14T14:25:57;1.40;;;1.30;;
85102;SDS011;75452;44.106;3.074;2024-02-14T14:28:23;1.85;;;1.40;;
85102;SDS011;75452;44.106;3.074;2024-02-14T14:30:53;1.27;;;1.15;;
85102;SDS011;75452;44.106;3.074;2024-02-14T14:33:19;0.90;;;0.90;;
85102;SDS011;75452;44.106;3.074;2024-02-14T14:35:45;2.22;;;1.38;;
85102;SDS011;75452;44.106;3.074;2024-02-14T14:38:10;1.65;;;1.50;;
85102;SDS011;75452;44.106;3.074;2024-02-14T14:40:36;1.30;;;1.20;;
85102;SDS011;75452;44.106;3.074;2024-02-14T14:43:02;1.40;;;1.30;;